Time;durP1;ratioP1;P1;durP2;ratioP2;P2;SDS_P1;SDS_P2;PMS_P1;PMS_P2;Temp;Humidity;BMP_temperature;BMP_pressure;BME280_temperature;BME280_humidity;BME280_pressure;Samples;Min_cycle;Max_cycle;Signal;HPM_P1;HPM_P2
2021/07/29 00:02:36;;;;;;;12.38;7.07;;;27.30;63.10;;;;;;6178316;28;82266;-67
2021/07/29 00:05:36;;;;;;;11.85;6.82;;;27.30;63.10;;;;;;6180013;28;80553;-67
2021/07/29 00:08:37;;;;;;;16.85;7.28;;;27.30;63.20;;;;;;6178273;28;80996;-67
2021/07/29 00:11:37;;;;;;;10.48;6.43;;;27.30;63.20;;;;;;6173393;28;80420;-66
2021/07/29 00:14:38;;;;;;;9.23;6.05;;;27.30;63.30;;;;;;6175261;28;80794;-67
2021/07/29 00:20:48;;;;;;;10.98;6.55;;;27.30;63.30;;;;;;6179247;28;81018;-67
2021/07/29 00:23:49;;;;;;;11.27;6.50;;;27.30;63.10;;;;;;6174322;28;80349;-68
2021/07/29 00:26:49;;;;;;;9.50;6.20;;;27.30;63.10;;;;;;6178464;28;80532;-67
2021/07/29 00:29:50;;;;;;;12.52;6.60;;;27.30;63.00;;;;;;6177579;28;80716;-68
2021/07/29 00:32:50;;;;;;;10.25;6.20;;;27.30;63.10;;;;;;6180209;28;80886;-67
2021/07/29 00:35:51;;;;;;;10.95;6.72;;;27.30;63.20;;;;;;6181142;28;80885;-68
2021/07/29 00:38:51;;;;;;;10.05;6.55;;;27.30;63.20;;;;;;6170871;28;80524;-67
2021/07/29 00:41:52;;;;;;;12.15;6.22;;;27.30;63.00;;;;;;6180092;28;80732;-67
2021/07/29 00:44:53;;;;;;;10.55;6.35;;;27.30;63.20;;;;;;6173635;28;81144;-67
2021/07/29 00:47:53;;;;;;;13.20;7.75;;;27.40;63.20;;;;;;6173684;28;80259;-67
2021/07/29 00:50:54;;;;;;;11.85;7.63;;;27.30;63.10;;;;;;6178409;28;81305;-67
2021/07/29 00:53:54;;;;;;;13.23;6.90;;;27.30;63.00;;;;;;6180038;28;81584;-67
2021/07/29 00:56:55;;;;;;;12.68;7.07;;;27.30;63.10;;;;;;6179564;28;80835;-67
2021/07/29 00:59:55;;;;;;;12.65;7.32;;;27.30;63.10;;;;;;6182003;28;80378;-67
2021/07/29 01:02:56;;;;;;;10.88;7.70;;;27.30;63.00;;;;;;6177375;28;81432;-67
2021/07/29 01:05:56;;;;;;;9.85;7.25;;;27.30;63.20;;;;;;6180586;28;80605;-67
2021/07/29 01:08:56;;;;;;;9.85;7.28;;;27.30;63.40;;;;;;6175702;28;80318;-66
2021/07/29 01:11:57;;;;;;;10.25;7.75;;;27.30;63.40;;;;;;6171736;28;80406;-67
2021/07/29 01:14:57;;;;;;;11.27;7.35;;;27.40;63.30;;;;;;6177953;28;81166;-67
2021/07/29 01:17:58;;;;;;;12.35;8.20;;;27.30;63.20;;;;;;6174185;28;80217;-67
2021/07/29 01:20:59;;;;;;;11.00;7.80;;;27.30;63.00;;;;;;6176674;28;80784;-67
2021/07/29 01:23:59;;;;;;;10.18;7.28;;;27.30;62.80;;;;;;6180219;28;80566;-67
2021/07/29 01:27:00;;;;;;;10.32;7.63;;;27.30;62.50;;;;;;6174370;28;80875;-66
2021/07/29 01:30:00;;;;;;;11.02;8.20;;;27.30;62.40;;;;;;6179900;28;81179;-66
2021/07/29 01:33:01;;;;;;;12.27;7.50;;;27.30;62.60;;;;;;6180721;28;81185;-66
2021/07/29 01:36:01;;;;;;;10.40;7.55;;;27.30;62.60;;;;;;6177633;28;81512;-66
2021/07/29 01:39:02;;;;;;;11.02;7.38;;;27.30;62.60;;;;;;6176737;28;82999;-67
2021/07/29 01:42:02;;;;;;;15.13;8.38;;;27.30;62.70;;;;;;6175494;28;80507;-67
2021/07/29 01:45:03;;;;;;;10.35;7.28;;;27.30;62.90;;;;;;6180131;28;80987;-67
2021/07/29 01:48:03;;;;;;;12.07;7.32;;;27.30;63.10;;;;;;6178378;28;80528;-67
2021/07/29 01:51:04;;;;;;;10.25;7.70;;;27.30;63.30;;;;;;6169886;28;81529;-67
2021/07/29 01:54:04;;;;;;;11.45;7.97;;;27.30;63.20;;;;;;6181616;28;80783;-68
2021/07/29 01:57:05;;;;;;;10.52;8.45;;;27.30;63.50;;;;;;6180110;28;82388;-68
2021/07/29 02:00:05;;;;;;;11.75;8.80;;;27.30;63.50;;;;;;6183025;28;80713;-69
2021/07/29 02:03:13;;;;;;;10.95;8.63;;;27.30;63.60;;;;;;6182025;28;80655;-69
2021/07/29 02:06:13;;;;;;;11.48;8.48;;;27.30;63.70;;;;;;6184027;28;81412;-69
2021/07/29 02:09:14;;;;;;;14.82;9.48;;;27.30;63.90;;;;;;6171550;28;80344;-69
2021/07/29 02:12:14;;;;;;;15.23;9.75;;;27.30;64.00;;;;;;6177776;28;80682;-70
2021/07/29 02:15:15;;;;;;;13.57;8.80;;;27.30;64.10;;;;;;6184903;28;80525;-67
2021/07/29 02:18:15;;;;;;;13.25;9.20;;;27.30;64.20;;;;;;6183173;28;80710;-67
2021/07/29 02:21:16;;;;;;;17.08;9.98;;;27.30;64.20;;;;;;6181896;28;80582;-68
2021/07/29 02:24:16;;;;;;;13.68;9.85;;;27.30;64.30;;;;;;6168393;28;83587;-67
2021/07/29 02:27:18;;;;;;;13.50;9.63;;;27.30;64.40;;;;;;6183031;28;83158;-67
2021/07/29 02:30:19;;;;;;;12.38;8.85;;;27.30;64.30;;;;;;6182285;28;80131;-67
2021/07/29 02:33:19;;;;;;;13.05;9.88;;;27.30;64.20;;;;;;6182592;28;82927;-67
2021/07/29 02:36:20;;;;;;;16.67;9.63;;;27.30;64.20;;;;;;6183438;28;80576;-67
2021/07/29 02:39:20;;;;;;;15.93;10.23;;;27.30;64.00;;;;;;6176431;28;82980;-67
2021/07/29 02:42:21;;;;;;;15.93;10.00;;;27.30;64.10;;;;;;6194320;28;85936;-67
2021/07/29 02:45:21;;;;;;;12.70;8.90;;;27.30;63.90;;;;;;6162453;28;84620;-67
2021/07/29 02:48:22;;;;;;;13.45;9.38;;;27.30;63.60;;;;;;6174653;28;83419;-67
2021/07/29 02:51:22;;;;;;;12.88;8.52;;;27.30;63.70;;;;;;6182759;28;81473;-68
2021/07/29 02:54:23;;;;;;;13.05;9.38;;;27.30;63.70;;;;;;6179631;28;80257;-68
2021/07/29 02:57:23;;;;;;;11.43;8.52;;;27.30;63.50;;;;;;6168551;28;80430;-69
2021/07/29 03:00:24;;;;;;;12.07;8.55;;;27.30;63.40;;;;;;6181275;28;80318;-67
2021/07/29 03:03:24;;;;;;;13.95;9.18;;;27.30;63.20;;;;;;6181191;28;80584;-67
2021/07/29 03:06:25;;;;;;;12.32;8.23;;;27.30;63.30;;;;;;6174424;28;80400;-67
2021/07/29 03:09:25;;;;;;;14.02;9.50;;;27.30;63.40;;;;;;6181966;28;80702;-68
2021/07/29 03:12:26;;;;;;;13.02;8.77;;;27.30;63.30;;;;;;6166673;28;81576;-67
2021/07/29 03:15:26;;;;;;;13.55;8.38;;;27.30;63.20;;;;;;6178183;28;80998;-66
2021/07/29 03:18:27;;;;;;;10.02;8.07;;;27.30;63.10;;;;;;6154198;28;81275;-67
2021/07/29 03:21:27;;;;;;;9.32;8.27;;;27.30;62.90;;;;;;6152918;28;80436;-66
2021/07/29 03:24:28;;;;;;;12.82;8.13;;;27.30;62.80;;;;;;6162173;28;82454;-67
2021/07/29 03:27:28;;;;;;;12.35;7.97;;;27.30;62.80;;;;;;6154389;28;80484;-67
2021/07/29 03:30:29;;;;;;;12.10;8.98;;;27.30;63.00;;;;;;6143666;28;80629;-67
2021/07/29 03:33:29;;;;;;;11.35;8.23;;;27.30;63.00;;;;;;6142346;28;80562;-66
2021/07/29 03:36:30;;;;;;;12.32;8.10;;;27.30;63.00;;;;;;6158559;28;80284;-67
2021/07/29 03:39:30;;;;;;;10.55;8.27;;;27.30;62.90;;;;;;6140650;28;80599;-66
2021/07/29 03:42:31;;;;;;;11.43;8.50;;;27.30;62.70;;;;;;6157118;28;81614;-67
2021/07/29 03:45:31;;;;;;;11.27;8.82;;;27.20;63.00;;;;;;6141304;28;80918;-67
2021/07/29 03:48:32;;;;;;;12.68;8.15;;;27.20;62.40;;;;;;6156003;28;80509;-66
2021/07/29 03:51:32;;;;;;;10.32;7.65;;;27.20;62.60;;;;;;6149617;28;81278;-66
2021/07/29 03:54:33;;;;;;;11.27;8.00;;;27.20;62.60;;;;;;6138814;28;80714;-67
2021/07/29 03:57:34;;;;;;;9.95;7.95;;;27.30;62.60;;;;;;6151538;28;81329;-68
2021/07/29 04:00:34;;;;;;;9.98;7.55;;;27.30;62.60;;;;;;6149910;28;81453;-67
2021/07/29 04:03:35;;;;;;;10.13;7.32;;;27.30;62.20;;;;;;6150384;28;81650;-67
2021/07/29 04:06:35;;;;;;;11.27;7.38;;;27.30;62.00;;;;;;6145748;28;83053;-67
2021/07/29 04:09:36;;;;;;;8.60;6.93;;;27.30;61.80;;;;;;6146244;28;81033;-66
2021/07/29 04:12:37;;;;;;;9.07;7.50;;;27.30;61.40;;;;;;6145492;28;80732;-66
2021/07/29 04:15:37;;;;;;;9.60;7.47;;;27.30;61.20;;;;;;6150651;28;80411;-66
2021/07/29 04:18:38;;;;;;;10.60;7.88;;;27.20;61.10;;;;;;6169342;28;83594;-65
2021/07/29 04:21:39;;;;;;;10.48;7.90;;;27.30;61.00;;;;;;6182710;28;81158;-65
2021/07/29 04:24:39;;;;;;;9.90;7.35;;;27.20;61.20;;;;;;6191858;28;82214;-66
2021/07/29 04:27:40;;;;;;;10.35;8.05;;;27.20;61.20;;;;;;6183191;28;81634;-66
2021/07/29 04:30:40;;;;;;;10.52;8.90;;;27.20;61.30;;;;;;6178175;28;80561;-67
2021/07/29 04:33:41;;;;;;;14.90;10.18;;;27.20;61.00;;;;;;6166529;28;81242;-65
2021/07/29 04:36:41;;;;;;;12.95;9.77;;;27.20;61.50;;;;;;6176075;28;83677;-69
2021/07/29 04:39:42;;;;;;;10.50;9.05;;;27.20;61.30;;;;;;6182901;28;83316;-69
2021/07/29 04:42:43;;;;;;;14.82;8.50;;;27.20;61.70;;;;;;6172942;28;83331;-68
2021/07/29 04:45:43;;;;;;;14.35;9.70;;;27.20;61.70;;;;;;6178695;28;80993;-68
2021/07/29 04:48:44;;;;;;;14.13;9.30;;;27.30;62.00;;;;;;6166299;28;80974;-68
2021/07/29 04:51:46;;;;;;;18.67;9.82;;;27.30;62.60;;;;;;6175574;28;81689;-67
2021/07/29 04:54:46;;;;;;;14.77;10.55;;;27.30;62.30;;;;;;6180156;28;80306;-67
2021/07/29 04:57:47;;;;;;;13.63;9.45;;;27.30;62.30;;;;;;6170632;28;83123;-67
2021/07/29 05:00:47;;;;;;;20.63;11.95;;;27.30;62.10;;;;;;6178374;28;83183;-68
2021/07/29 05:03:48;;;;;;;17.02;11.80;;;27.30;62.20;;;;;;6178045;28;83221;-69
2021/07/29 05:06:48;;;;;;;14.88;11.13;;;27.30;62.00;;;;;;6167613;28;83476;-70
2021/07/29 05:09:49;;;;;;;19.15;11.27;;;27.30;61.90;;;;;;6178432;28;83190;-71
2021/07/29 05:12:49;;;;;;;16.27;11.35;;;27.30;61.90;;;;;;6164302;28;83999;-69
2021/07/29 05:15:50;;;;;;;13.50;10.10;;;27.40;61.70;;;;;;6163724;28;83352;-69
2021/07/29 05:18:51;;;;;;;13.65;9.77;;;27.40;61.90;;;;;;6174625;28;83160;-70
2021/07/29 05:21:51;;;;;;;16.52;9.55;;;27.40;61.60;;;;;;6167233;28;82844;-67
2021/07/29 05:24:52;;;;;;;15.60;9.98;;;27.40;61.70;;;;;;6166830;28;80484;-68
2021/07/29 05:27:52;;;;;;;15.98;9.90;;;27.40;61.70;;;;;;6167093;28;83555;-68
2021/07/29 05:30:53;;;;;;;14.30;11.57;;;27.40;61.70;;;;;;6170601;28;81729;-67
2021/07/29 05:33:53;;;;;;;20.48;11.82;;;27.40;61.60;;;;;;6168291;28;83060;-69
2021/07/29 05:36:54;;;;;;;17.70;10.63;;;27.40;61.60;;;;;;6176626;28;83778;-69
2021/07/29 05:39:54;;;;;;;17.77;10.65;;;27.30;61.20;;;;;;6179952;28;83824;-68
2021/07/29 05:42:54;;;;;;;15.95;10.18;;;27.40;61.20;;;;;;6170167;28;83277;-68
2021/07/29 05:45:55;;;;;;;13.68;9.32;;;27.30;60.90;;;;;;6171300;28;83724;-68
2021/07/29 05:48:55;;;;;;;13.20;8.68;;;27.30;60.90;;;;;;6172998;28;83121;-69
2021/07/29 05:51:56;;;;;;;18.13;10.30;;;27.30;61.10;;;;;;6174340;28;80806;-71
2021/07/29 05:54:56;;;;;;;16.80;9.27;;;27.30;60.80;;;;;;6175431;28;83003;-71
2021/07/29 05:57:57;;;;;;;13.60;8.93;;;27.30;60.70;;;;;;6177214;28;82864;-72
2021/07/29 06:00:57;;;;;;;19.33;9.88;;;27.30;60.70;;;;;;6182059;28;81921;-70
2021/07/29 06:03:58;;;;;;;11.50;9.07;;;27.30;60.70;;;;;;6181518;28;81737;-69
2021/07/29 06:06:58;;;;;;;13.93;10.10;;;27.30;60.80;;;;;;6171841;28;80526;-69
2021/07/29 06:09:59;;;;;;;14.70;9.48;;;27.30;60.60;;;;;;6178792;28;82961;-69
2021/07/29 06:12:59;;;;;;;15.35;10.38;;;27.30;60.60;;;;;;6178987;28;82850;-70
2021/07/29 06:16:02;;;;;;;15.93;9.70;;;27.30;60.70;;;;;;6168414;28;83059;-70
2021/07/29 06:19:08;;;;;;;17.50;10.30;;;27.30;60.60;;;;;;6194813;28;83202;-69
2021/07/29 06:22:09;;;;;;;25.10;10.32;;;27.30;60.60;;;;;;6182060;28;83140;-71
2021/07/29 06:25:10;;;;;;;12.35;9.02;;;27.30;60.50;;;;;;6175150;28;83326;-69
2021/07/29 06:28:15;;;;;;;14.93;9.85;;;27.30;60.60;;;;;;6180060;28;82919;-69
2021/07/29 06:31:16;;;;;;;11.63;9.37;;;27.30;60.20;;;;;;6179897;28;81043;-69
2021/07/29 06:34:16;;;;;;;10.88;8.75;;;27.30;59.50;;;;;;6176309;28;80489;-71
2021/07/29 06:37:17;;;;;;;59.00;22.42;;;27.30;59.10;;;;;;6177700;28;83528;-68
2021/07/29 06:40:17;;;;;;;295.70;103.70;;;27.30;59.20;;;;;;6164765;28;83167;-68
2021/07/29 06:43:18;;;;;;;497.65;187.75;;;27.30;59.30;;;;;;6165536;28;86026;-68
2021/07/29 06:46:18;;;;;;;323.17;115.50;;;27.30;59.50;;;;;;6173234;28;85835;-69
2021/07/29 06:49:19;;;;;;;179.70;64.20;;;27.30;59.20;;;;;;6174576;28;85755;-69
2021/07/29 06:52:19;;;;;;;79.85;32.25;;;27.20;58.90;;;;;;6175709;28;87150;-67
2021/07/29 06:55:20;;;;;;;49.60;21.50;;;27.10;58.90;;;;;;6176947;28;84106;-69
2021/07/29 06:58:21;;;;;;;44.47;20.00;;;27.10;58.90;;;;;;6178680;28;83930;-69
2021/07/29 07:01:22;;;;;;;44.33;20.13;;;27.20;59.00;;;;;;6166409;28;83291;-70
2021/07/29 07:04:22;;;;;;;35.45;16.95;;;27.20;59.20;;;;;;6170021;28;83540;-69
2021/07/29 07:07:23;;;;;;;32.10;15.45;;;27.20;59.40;;;;;;6170701;28;83831;-69
2021/07/29 07:10:23;;;;;;;29.60;13.77;;;27.20;59.40;;;;;;6168855;28;83997;-69
2021/07/29 07:13:24;;;;;;;25.88;12.98;;;27.30;59.30;;;;;;6175467;28;84017;-69
2021/07/29 07:16:24;;;;;;;15.50;11.02;;;27.30;59.10;;;;;;6177534;28;83474;-68
2021/07/29 07:19:25;;;;;;;21.58;13.85;;;27.20;59.60;;;;;;6176966;28;83522;-69
2021/07/29 07:22:25;;;;;;;17.88;12.23;;;27.30;59.00;;;;;;6174531;28;83170;-68
2021/07/29 07:25:26;;;;;;;17.20;11.70;;;27.20;58.90;;;;;;6164746;28;84307;-67
2021/07/29 07:28:26;;;;;;;17.98;11.32;;;27.30;59.00;;;;;;6173606;28;83442;-68
2021/07/29 07:31:27;;;;;;;16.38;10.10;;;27.30;58.70;;;;;;6175597;28;83506;-68
2021/07/29 07:34:27;;;;;;;13.98;9.88;;;27.30;58.80;;;;;;6177853;28;83072;-69
2021/07/29 07:37:28;;;;;;;14.55;10.32;;;27.30;58.90;;;;;;6179966;28;82020;-68
2021/07/29 07:40:28;;;;;;;12.18;9.88;;;27.30;58.90;;;;;;6174929;28;83262;-67
2021/07/29 07:43:29;;;;;;;18.50;10.30;;;27.30;58.70;;;;;;6172196;28;83128;-71
2021/07/29 07:46:29;;;;;;;17.25;9.40;;;27.30;58.70;;;;;;6177360;28;83390;-68
2021/07/29 07:49:30;;;;;;;16.10;10.48;;;27.30;58.50;;;;;;6177314;28;83320;-70
2021/07/29 07:52:30;;;;;;;14.75;9.43;;;27.30;58.10;;;;;;6175860;28;83073;-70
2021/07/29 07:55:31;;;;;;;12.48;9.20;;;27.30;58.30;;;;;;6166965;28;83300;-69
2021/07/29 07:58:31;;;;;;;10.18;8.60;;;27.30;58.10;;;;;;6180425;28;80481;-69
2021/07/29 08:01:31;;;;;;;12.73;8.80;;;27.30;57.80;;;;;;6175704;28;80776;-67
2021/07/29 08:04:32;;;;;;;12.48;7.85;;;27.40;57.80;;;;;;6169046;28;80675;-69
2021/07/29 08:07:32;;;;;;;14.55;8.35;;;27.30;57.50;;;;;;6171303;28;80849;-70
2021/07/29 08:10:33;;;;;;;15.38;8.27;;;27.40;57.60;;;;;;6172960;28;80397;-70
2021/07/29 08:13:34;;;;;;;15.60;7.57;;;27.40;57.10;;;;;;6177985;28;80537;-70
2021/07/29 08:16:34;;;;;;;12.77;6.80;;;27.40;56.50;;;;;;6177560;28;80912;-69
2021/07/29 08:19:35;;;;;;;9.70;7.20;;;27.40;56.40;;;;;;6174252;28;80477;-70
2021/07/29 08:22:35;;;;;;;9.27;6.78;;;27.40;56.30;;;;;;6175604;28;80774;-70
2021/07/29 08:25:36;;;;;;;7.80;6.55;;;27.40;56.40;;;;;;6175659;28;81400;-69
2021/07/29 08:28:40;;;;;;;12.20;6.43;;;27.40;55.70;;;;;;6179146;28;82206;-72
2021/07/29 08:31:40;;;;;;;9.35;6.70;;;27.40;56.10;;;;;;6171053;28;80446;-71
2021/07/29 08:34:41;;;;;;;9.68;6.00;;;27.40;56.10;;;;;;6169564;28;81737;-72
2021/07/29 08:37:44;;;;;;;8.55;6.30;;;27.40;55.10;;;;;;6173022;28;81632;-71
2021/07/29 08:40:45;;;;;;;7.78;5.72;;;27.30;55.70;;;;;;6165693;28;80434;-71
2021/07/29 08:43:45;;;;;;;9.32;5.75;;;27.40;55.30;;;;;;6170841;28;80507;-71
2021/07/29 08:46:46;;;;;;;7.55;5.30;;;27.40;55.80;;;;;;6168943;28;82282;-71
2021/07/29 08:49:46;;;;;;;8.27;5.93;;;27.50;55.80;;;;;;6167165;28;84807;-67
2021/07/29 08:52:47;;;;;;;8.52;6.18;;;27.40;55.50;;;;;;6174373;28;80454;-68
2021/07/29 08:55:47;;;;;;;10.82;6.15;;;27.50;55.60;;;;;;6171876;28;80536;-68
2021/07/29 08:58:48;;;;;;;11.90;6.30;;;27.50;55.10;;;;;;6177131;28;81139;-68
2021/07/29 09:01:48;;;;;;;7.47;5.05;;;27.40;54.90;;;;;;6176688;28;80276;-67
2021/07/29 09:04:49;;;;;;;10.30;6.25;;;27.50;54.90;;;;;;6176490;28;82800;-67
2021/07/29 09:07:49;;;;;;;9.45;6.65;;;27.50;54.30;;;;;;6173965;28;80629;-69
2021/07/29 09:10:50;;;;;;;8.77;5.43;;;27.50;55.10;;;;;;6167445;28;80939;-70
2021/07/29 09:13:50;;;;;;;10.45;6.35;;;27.50;54.40;;;;;;6176333;28;80213;-69
2021/07/29 09:16:50;;;;;;;8.77;6.32;;;27.50;54.50;;;;;;6193986;28;81443;-75
2021/07/29 09:19:53;;;;;;;7.45;5.70;;;27.50;54.70;;;;;;6174505;28;80991;-71
2021/07/29 09:22:53;;;;;;;9.85;6.25;;;27.50;54.60;;;;;;6169642;28;80324;-71
2021/07/29 09:25:54;;;;;;;7.53;5.55;;;27.40;53.40;;;;;;6168159;28;80646;-70
2021/07/29 09:28:54;;;;;;;9.70;5.88;;;27.30;53.50;;;;;;6174148;28;81033;-70
2021/07/29 09:31:55;;;;;;;8.95;5.78;;;27.40;53.40;;;;;;6175842;28;80571;-71
2021/07/29 09:34:55;;;;;;;11.70;5.95;;;27.30;53.40;;;;;;6179806;28;80563;-71
2021/07/29 09:37:56;;;;;;;5.95;5.28;;;27.30;53.20;;;;;;6175234;28;81552;-71
2021/07/29 09:40:58;;;;;;;7.70;5.80;;;27.30;53.00;;;;;;6177284;28;80002;-70
2021/07/29 09:43:58;;;;;;;7.60;5.82;;;27.40;53.20;;;;;;6178129;28;80145;-71
2021/07/29 09:47:01;;;;;;;8.20;5.97;;;27.40;53.10;;;;;;6176238;28;81799;-71
2021/07/29 09:50:02;;;;;;;7.78;5.95;;;27.50;53.00;;;;;;6175935;28;80368;-71
2021/07/29 09:53:02;;;;;;;9.65;6.75;;;27.50;51.90;;;;;;6173779;28;80571;-72
2021/07/29 09:56:03;;;;;;;7.80;5.45;;;27.40;52.20;;;;;;6179831;28;80429;-72
2021/07/29 09:59:03;;;;;;;12.23;6.57;;;27.30;52.20;;;;;;6191204;28;80356;-70
2021/07/29 10:02:04;;;;;;;9.50;6.05;;;27.40;52.10;;;;;;6179599;28;80881;-73
2021/07/29 10:05:04;;;;;;;9.77;5.80;;;27.30;51.90;;;;;;6177965;28;80662;-72
2021/07/29 10:08:05;;;;;;;9.25;6.15;;;27.30;52.10;;;;;;6178341;28;80311;-72
2021/07/29 10:11:07;;;;;;;10.20;6.57;;;27.50;52.40;;;;;;6175483;28;82023;-72
2021/07/29 10:14:07;;;;;;;12.70;6.82;;;27.50;52.60;;;;;;6184319;28;80547;-72
2021/07/29 10:17:07;;;;;;;9.07;6.60;;;27.60;52.60;;;;;;6167617;28;80747;-72
2021/07/29 10:20:08;;;;;;;8.32;6.68;;;27.60;52.70;;;;;;6181253;28;82559;-71
2021/07/29 10:23:08;;;;;;;11.50;6.97;;;27.60;52.70;;;;;;6183264;28;80606;-72
2021/07/29 10:26:10;;;;;;;8.32;6.88;;;27.60;52.50;;;;;;6183741;28;80767;-72
2021/07/29 10:29:10;;;;;;;8.80;6.30;;;27.50;52.20;;;;;;6181323;28;80992;-72
2021/07/29 10:32:12;;;;;;;9.25;6.55;;;27.60;52.10;;;;;;6175898;28;80740;-72
2021/07/29 10:35:12;;;;;;;12.75;8.98;;;27.70;52.20;;;;;;6183006;28;81225;-72
2021/07/29 10:38:14;;;;;;;13.63;9.68;;;27.70;52.60;;;;;;6179991;28;80583;-71
2021/07/29 10:41:16;;;;;;;13.98;10.73;;;27.70;52.60;;;;;;6184001;28;80866;-73
2021/07/29 10:44:16;;;;;;;14.32;8.95;;;27.70;52.50;;;;;;6174760;28;84235;-72
2021/07/29 10:47:18;;;;;;;14.25;11.52;;;27.80;52.20;;;;;;6172294;28;82960;-73
2021/07/29 10:50:20;;;;;;;17.20;12.38;;;27.80;51.70;;;;;;6172885;28;83261;-73
2021/07/29 10:53:20;;;;;;;16.00;11.50;;;27.80;51.60;;;;;;6171616;28;83219;-72
2021/07/29 10:56:21;;;;;;;14.43;10.63;;;27.80;51.90;;;;;;6179712;28;83332;-72
2021/07/29 10:59:21;;;;;;;13.80;9.55;;;27.80;52.10;;;;;;6179640;28;83554;-73
2021/07/29 11:02:23;;;;;;;12.57;9.45;;;27.80;51.80;;;;;;6179248;28;83884;-73
2021/07/29 11:05:30;;;;;;;11.27;8.32;;;27.80;52.10;;;;;;6182883;28;80317;-72
2021/07/29 11:08:30;;;;;;;11.25;7.68;;;27.90;51.60;;;;;;6182207;28;80498;-71
2021/07/29 11:11:31;;;;;;;10.60;7.78;;;27.90;50.90;;;;;;6180863;28;80430;-71
2021/07/29 11:14:31;;;;;;;9.80;7.57;;;27.90;51.30;;;;;;6179629;28;80469;-72
2021/07/29 11:17:32;;;;;;;12.07;7.68;;;27.90;51.40;;;;;;6183502;28;81232;-70
2021/07/29 11:20:32;;;;;;;12.55;7.97;;;27.90;50.90;;;;;;6170998;28;80480;-71
2021/07/29 11:23:33;;;;;;;9.00;7.63;;;27.90;51.40;;;;;;6182599;28;80359;-73
2021/07/29 11:26:33;;;;;;;8.48;7.50;;;28.00;51.60;;;;;;6181825;28;80261;-72
2021/07/29 11:29:34;;;;;;;9.55;7.53;;;28.00;51.00;;;;;;6181876;28;80500;-73
2021/07/29 11:32:34;;;;;;;11.18;9.27;;;28.00;51.50;;;;;;6181024;28;80644;-74
2021/07/29 11:35:35;;;;;;;11.63;8.25;;;28.10;51.20;;;;;;6171762;28;80648;-73
2021/07/29 11:38:35;;;;;;;8.60;7.45;;;28.10;50.70;;;;;;6174637;28;80417;-75
2021/07/29 11:41:36;;;;;;;10.23;6.82;;;28.10;51.10;;;;;;6168087;28;80775;-73
2021/07/29 11:44:36;;;;;;;7.88;7.07;;;28.10;50.20;;;;;;6178329;28;81557;-73
2021/07/29 11:47:37;;;;;;;13.68;7.65;;;28.10;50.90;;;;;;6182685;28;80634;-73
2021/07/29 11:50:37;;;;;;;9.18;7.22;;;28.10;50.90;;;;;;6181886;28;81121;-73
2021/07/29 11:53:39;;;;;;;10.40;8.15;;;28.10;51.00;;;;;;6176830;28;80469;-74
2021/07/29 11:56:39;;;;;;;11.05;7.38;;;28.10;50.90;;;;;;6174729;28;80814;-74
2021/07/29 11:59:40;;;;;;;8.80;7.05;;;28.10;50.80;;;;;;6181756;28;80414;-73
2021/07/29 12:02:40;;;;;;;7.93;7.13;;;28.10;50.40;;;;;;6167454;28;80430;-71
2021/07/29 12:05:41;;;;;;;8.32;7.53;;;28.10;50.50;;;;;;6177559;28;81975;-71
2021/07/29 12:08:42;;;;;;;8.85;6.38;;;28.10;50.30;;;;;;6175945;28;80637;-71
2021/07/29 12:11:42;;;;;;;9.82;7.10;;;28.10;50.00;;;;;;6174427;28;80622;-72
2021/07/29 12:14:43;;;;;;;10.40;6.97;;;28.10;50.30;;;;;;6185795;28;81520;-73
2021/07/29 12:17:43;;;;;;;7.82;6.53;;;28.10;49.60;;;;;;6181277;28;80550;-73
2021/07/29 12:20:44;;;;;;;16.40;10.32;;;28.10;49.60;;;;;;6173262;28;81049;-72
2021/07/29 12:23:44;;;;;;;8.80;7.47;;;28.10;48.50;;;;;;6164600;28;83457;-71
2021/07/29 12:26:44;;;;;;;16.60;7.47;;;28.10;48.30;;;;;;6171435;28;82928;-70
2021/07/29 12:29:46;;;;;;;7.93;6.68;;;28.10;48.00;;;;;;6180514;28;80469;-71
2021/07/29 12:32:46;;;;;;;8.35;6.32;;;28.10;47.60;;;;;;6177707;28;80514;-71
2021/07/29 12:35:47;;;;;;;13.77;7.15;;;28.20;48.10;;;;;;6178064;28;81696;-70
2021/07/29 12:38:48;;;;;;;8.32;5.10;;;28.10;48.40;;;;;;6177009;28;81115;-70
2021/07/29 12:41:48;;;;;;;7.93;5.78;;;28.10;46.90;;;;;;6173624;28;83394;-70
2021/07/29 12:44:49;;;;;;;8.48;6.78;;;28.10;46.70;;;;;;6177360;28;81931;-72
2021/07/29 12:47:49;;;;;;;7.47;5.60;;;28.10;46.30;;;;;;6171774;28;81796;-72
2021/07/29 12:50:50;;;;;;;6.65;4.97;;;28.10;46.10;;;;;;6172338;28;80404;-68
2021/07/29 12:53:51;;;;;;;9.20;5.00;;;28.10;46.20;;;;;;6163272;28;81857;-71
2021/07/29 12:56:51;;;;;;;8.98;5.32;;;28.10;47.10;;;;;;6165153;28;81010;-70
2021/07/29 12:59:52;;;;;;;6.85;5.22;;;28.10;47.80;;;;;;6169537;28;81901;-70
2021/07/29 13:02:52;;;;;;;8.23;5.68;;;28.10;48.10;;;;;;6176709;28;80668;-69
2021/07/29 13:05:53;;;;;;;9.38;5.32;;;28.00;48.80;;;;;;6179900;28;81098;-70
2021/07/29 13:08:54;;;;;;;6.47;5.07;;;28.00;48.60;;;;;;6170569;28;82684;-70
2021/07/29 13:11:54;;;;;;;147.20;52.05;;;28.00;48.50;;;;;;6173995;28;80977;-71
2021/07/29 13:14:55;;;;;;;215.05;73.95;;;28.10;48.50;;;;;;6199706;28;83423;-69
2021/07/29 13:17:55;;;;;;;250.60;87.22;;;28.10;46.30;;;;;;6170522;28;83365;-66
2021/07/29 13:20:56;;;;;;;252.98;83.82;;;28.10;47.30;;;;;;6168557;28;88308;-68
2021/07/29 13:23:56;;;;;;;202.07;69.53;;;28.10;48.00;;;;;;6164612;28;83037;-68
2021/07/29 13:26:57;;;;;;;161.85;56.50;;;28.10;48.20;;;;;;6169882;28;83032;-68
2021/07/29 13:29:57;;;;;;;145.82;52.92;;;28.10;48.60;;;;;;6177564;28;85471;-67
2021/07/29 13:32:58;;;;;;;114.35;44.05;;;28.10;48.90;;;;;;6174292;28;83235;-68
2021/07/29 13:35:58;;;;;;;81.38;33.03;;;28.10;49.50;;;;;;6170246;28;82932;-69
2021/07/29 13:38:59;;;;;;;98.72;38.33;;;28.20;49.40;;;;;;6167154;28;83020;-69
2021/07/29 13:41:59;;;;;;;85.32;32.13;;;28.20;49.30;;;;;;6177512;28;83641;-67
2021/07/29 13:45:19;;;;;;;81.40;32.95;;;28.10;49.30;;;;;;6166501;28;83274;-68
2021/07/29 13:48:19;;;;;;;68.50;26.92;;;28.10;49.60;;;;;;6166842;28;84039;-66
2021/07/29 13:51:20;;;;;;;57.88;23.15;;;28.10;50.00;;;;;;6169302;28;82951;-68
2021/07/29 13:54:20;;;;;;;54.30;21.75;;;28.10;50.40;;;;;;6164229;28;83037;-70
2021/07/29 13:57:20;;;;;;;53.20;20.02;;;28.10;50.80;;;;;;6174479;28;83441;-66
2021/07/29 14:00:21;;;;;;;55.03;18.88;;;28.10;50.90;;;;;;6176807;28;83810;-67
2021/07/29 14:03:22;;;;;;;39.50;16.63;;;28.10;52.60;;;;;;6181669;28;83180;-69
2021/07/29 14:06:22;;;;;;;38.75;15.32;;;28.20;51.40;;;;;;6167464;28;83704;-67
2021/07/29 14:09:23;;;;;;;24.17;10.25;;;28.10;51.40;;;;;;6172157;28;83046;-68
2021/07/29 14:12:27;;;;;;;18.08;8.38;;;28.10;50.80;;;;;;6169335;28;85660;-68
2021/07/29 14:15:27;;;;;;;11.77;6.13;;;28.10;49.70;;;;;;6198508;28;84343;-68
2021/07/29 14:18:28;;;;;;;9.15;5.88;;;28.20;48.30;;;;;;6183163;28;80488;-68
2021/07/29 14:22:49;;;;;;;10.88;5.35;;;28.20;48.40;;;;;;6180057;28;80795;-66
2021/07/29 14:24:49;;;;;;;9.32;5.75;;;28.20;49.00;;;;;;6182859;28;81029;-67
2021/07/29 14:27:50;;;;;;;10.55;5.88;;;28.20;48.60;;;;;;6185118;28;80467;-67
2021/07/29 14:30:50;;;;;;;11.48;5.53;;;28.20;49.10;;;;;;6185653;28;80273;-67
2021/07/29 14:33:51;;;;;;;9.57;5.22;;;28.20;48.40;;;;;;6184040;28;80354;-68
2021/07/29 14:36:51;;;;;;;5.93;4.45;;;28.10;48.50;;;;;;6180346;28;80604;-67
2021/07/29 14:39:52;;;;;;;9.90;4.53;;;28.20;47.30;;;;;;6181383;28;80844;-67
2021/07/29 14:42:53;;;;;;;5.38;4.20;;;28.20;47.60;;;;;;6183781;28;81683;-67
2021/07/29 14:49:22;;;;;;;5.18;4.30;;;28.20;47.50;;;;;;6168900;28;82138;-66
2021/07/29 14:52:23;;;;;;;5.65;4.45;;;28.20;48.00;;;;;;6174059;28;80428;-67
2021/07/29 14:55:28;;;;;;;10.38;4.40;;;28.20;47.90;;;;;;6184315;28;82196;-66
2021/07/29 15:18:22;;;;;;;4.95;4.45;;;28.30;48.30;;;;;;6182288;28;81126;-66
2021/07/29 16:08:06;;;;;;;12.50;5.07;;;28.20;46.10;;;;;;6168267;28;85000;-67
2021/07/29 16:11:06;;;;;;;10.35;5.03;;;28.10;45.90;;;;;;6171238;28;80899;-68
2021/07/29 16:14:13;;;;;;;6.25;5.13;;;28.10;45.90;;;;;;6163579;28;81976;-68
2021/07/29 16:17:14;;;;;;;7.38;5.47;;;28.10;46.10;;;;;;6173984;28;80346;-68
2021/07/29 16:20:14;;;;;;;14.85;5.95;;;28.00;46.00;;;;;;6172003;28;80323;-70
2021/07/29 16:23:15;;;;;;;17.25;5.82;;;28.10;46.30;;;;;;6173629;28;80894;-68
2021/07/29 16:26:15;;;;;;;9.25;5.55;;;28.10;46.70;;;;;;6182781;28;80328;-68
2021/07/29 16:29:15;;;;;;;6.00;4.90;;;28.10;46.70;;;;;;6183019;28;80106;-68
2021/07/29 16:32:16;;;;;;;8.55;5.10;;;28.10;46.10;;;;;;6181921;28;80590;-68
2021/07/29 16:35:16;;;;;;;6.10;5.10;;;28.10;46.40;;;;;;6173837;28;83063;-68
2021/07/29 16:38:17;;;;;;;7.85;4.97;;;28.10;46.30;;;;;;6175287;28;80368;-67
2021/07/29 16:41:18;;;;;;;9.35;4.70;;;28.10;46.70;;;;;;6173820;28;81119;-68
2021/07/29 16:44:18;;;;;;;10.43;4.70;;;28.10;46.70;;;;;;6167008;28;80506;-69